sensor_id;sensor_type;location;lat;lon;timestamp;noise_LAeq;noise_LA_min;noise_LA_max;noise_LA01;noise_LA95
64077;Laerm;51039;49.696;10.808;2022-11-30T00:01:13;27.85;26.77;28.93;;
64077;Laerm;51039;49.696;10.808;2022-11-30T00:03:39;27.85;26.56;29.00;;
64077;Laerm;51039;49.696;10.808;2022-11-30T00:06:06;27.84;26.57;29.10;;
64077;Laerm;51039;49.696;10.808;2022-11-30T00:08:32;27.82;26.58;28.87;;
64077;Laerm;51039;49.696;10.808;2022-11-30T00:10:57;27.82;26.39;28.97;;
64077;Laerm;51039;49.696;10.808;2022-11-30T00:13:22;27.81;26.43;28.98;;
64077;Laerm;51039;49.696;10.808;2022-11-30T00:15:48;27.81;26.71;29.04;;
64077;Laerm;51039;49.696;10.808;2022-11-30T00:18:14;27.83;26.46;28.94;;
64077;Laerm;51039;49.696;10.808;2022-11-30T00:20:42;27.81;26.52;28.96;;
64077;Laerm;51039;49.696;10.808;2022-11-30T00:23:07;27.81;26.49;28.98;;
64077;Laerm;51039;49.696;10.808;2022-11-30T00:25:34;27.81;26.57;29.19;;
64077;Laerm;51039;49.696;10.808;2022-11-30T00:27:59;27.80;26.55;29.08;;
64077;Laerm;51039;49.696;10.808;2022-11-30T00:30:25;27.81;26.62;29.03;;
64077;Laerm;51039;49.696;10.808;2022-11-30T00:32:55;27.81;26.53;28.96;;
64077;Laerm;51039;49.696;10.808;2022-11-30T00:35:20;27.80;26.55;28.83;;
64077;Laerm;51039;49.696;10.808;2022-11-30T00:37:46;27.80;26.61;29.04;;
64077;Laerm;51039;49.696;10.808;2022-11-30T00:40:11;27.79;26.55;28.99;;
64077;Laerm;51039;49.696;10.808;2022-11-30T00:42:37;27.81;26.64;29.04;;
64077;Laerm;51039;49.696;10.808;2022-11-30T00:45:02;27.80;26.55;28.85;;
64077;Laerm;51039;49.696;10.808;2022-11-30T00:47:28;27.80;26.59;28.84;;
64077;Laerm;51039;49.696;10.808;2022-11-30T00:49:53;27.80;26.42;28.79;;
64077;Laerm;51039;49.696;10.808;2022-11-30T00:52:18;27.79;26.52;29.02;;
64077;Laerm;51039;49.696;10.808;2022-11-30T00:54:44;27.78;26.21;29.10;;
64077;Laerm;51039;49.696;10.808;2022-11-30T00:57:09;27.80;26.38;29.09;;
64077;Laerm;51039;49.696;10.808;2022-11-30T00:59:35;27.80;26.51;28.87;;
64077;Laerm;51039;49.696;10.808;2022-11-30T01:02:00;27.79;26.45;28.86;;
64077;Laerm;51039;49.696;10.808;2022-11-30T01:04:26;27.80;26.61;29.18;;
64077;Laerm;51039;49.696;10.808;2022-11-30T01:06:51;27.80;26.55;28.99;;
64077;Laerm;51039;49.696;10.808;2022-11-30T01:09:16;27.79;26.52;28.98;;
64077;Laerm;51039;49.696;10.808;2022-11-30T01:11:42;27.80;26.49;28.90;;
64077;Laerm;51039;49.696;10.808;2022-11-30T01:14:07;27.79;26.30;28.87;;
64077;Laerm;51039;49.696;10.808;2022-11-30T01:16:33;27.80;26.62;29.00;;
64077;Laerm;51039;49.696;10.808;2022-11-30T01:18:59;27.79;26.76;29.06;;
64077;Laerm;51039;49.696;10.808;2022-11-30T01:21:26;27.79;26.35;28.92;;
64077;Laerm;51039;49.696;10.808;2022-11-30T01:23:52;27.79;26.56;28.97;;
64077;Laerm;51039;49.696;10.808;2022-11-30T01:26:18;27.80;26.66;28.88;;
64077;Laerm;51039;49.696;10.808;2022-11-30T01:28:44;27.80;26.65;29.16;;
64077;Laerm;51039;49.696;10.808;2022-11-30T01:31:12;27.80;26.41;28.99;;
64077;Laerm;51039;49.696;10.808;2022-11-30T01:33:38;27.81;26.07;29.01;;
64077;Laerm;51039;49.696;10.808;2022-11-30T01:36:13;27.80;26.38;28.91;;
64077;Laerm;51039;49.696;10.808;2022-11-30T01:38:41;27.81;26.37;28.86;;
64077;Laerm;51039;49.696;10.808;2022-11-30T01:41:08;27.83;26.51;28.95;;
64077;Laerm;51039;49.696;10.808;2022-11-30T01:43:42;27.84;26.67;28.86;;
64077;Laerm;51039;49.696;10.808;2022-11-30T01:46:42;27.86;26.49;29.07;;
64077;Laerm;51039;49.696;10.808;2022-11-30T01:49:12;27.86;26.69;29.02;;
64077;Laerm;51039;49.696;10.808;2022-11-30T01:51:48;27.87;26.63;29.03;;
64077;Laerm;51039;49.696;10.808;2022-11-30T01:54:16;27.89;26.64;29.06;;
64077;Laerm;51039;49.696;10.808;2022-11-30T01:56:48;27.91;26.51;29.06;;
64077;Laerm;51039;49.696;10.808;2022-11-30T01:59:15;27.92;26.63;29.06;;
64077;Laerm;51039;49.696;10.808;2022-11-30T02:01:41;27.96;26.76;29.00;;
64077;Laerm;51039;49.696;10.808;2022-11-30T02:04:07;28.00;26.73;29.17;;
64077;Laerm;51039;49.696;10.808;2022-11-30T02:06:35;28.04;26.97;29.24;;
64077;Laerm;51039;49.696;10.808;2022-11-30T02:09:01;28.11;26.80;29.25;;
64077;Laerm;51039;49.696;10.808;2022-11-30T02:11:26;28.22;27.01;29.32;;
64077;Laerm;51039;49.696;10.808;2022-11-30T02:16:39;28.37;27.10;29.59;;
64077;Laerm;51039;49.696;10.808;2022-11-30T02:19:27;28.47;27.28;29.61;;
64077;Laerm;51039;49.696;10.808;2022-11-30T02:22:15;28.62;27.44;29.90;;
64077;Laerm;51039;49.696;10.808;2022-11-30T02:27:55;28.85;27.54;29.94;;
64077;Laerm;51039;49.696;10.808;2022-11-30T02:30:23;28.96;27.67;30.50;;
64077;Laerm;51039;49.696;10.808;2022-11-30T02:32:51;29.11;27.87;30.18;;
64077;Laerm;51039;49.696;10.808;2022-11-30T02:35:20;29.27;28.17;30.44;;
64077;Laerm;51039;49.696;10.808;2022-11-30T02:37:50;29.45;28.24;30.62;;
64077;Laerm;51039;49.696;10.808;2022-11-30T02:40:19;29.58;28.33;30.78;;
64077;Laerm;51039;49.696;10.808;2022-11-30T02:42:46;29.75;28.53;30.79;;
64077;Laerm;51039;49.696;10.808;2022-11-30T02:45:14;29.89;28.55;31.18;;
64077;Laerm;51039;49.696;10.808;2022-11-30T02:47:47;30.06;28.49;31.11;;
64077;Laerm;51039;49.696;10.808;2022-11-30T02:50:23;30.31;29.06;31.43;;
64077;Laerm;51039;49.696;10.808;2022-11-30T02:52:50;30.56;29.27;31.74;;
64077;Laerm;51039;49.696;10.808;2022-11-30T02:55:18;30.80;29.45;31.90;;
64077;Laerm;51039;49.696;10.808;2022-11-30T02:57:44;31.07;29.92;32.46;;
64077;Laerm;51039;49.696;10.808;2022-11-30T03:00:10;31.31;29.79;32.39;;
64077;Laerm;51039;49.696;10.808;2022-11-30T03:02:36;31.54;30.41;32.70;;
64077;Laerm;51039;49.696;10.808;2022-11-30T03:05:03;31.75;30.68;32.79;;
64077;Laerm;51039;49.696;10.808;2022-11-30T03:07:29;31.96;30.86;33.04;;
64077;Laerm;51039;49.696;10.808;2022-11-30T03:09:54;32.19;30.74;33.26;;
64077;Laerm;51039;49.696;10.808;2022-11-30T03:12:20;32.39;31.09;33.58;;
64077;Laerm;51039;49.696;10.808;2022-11-30T03:14:45;32.61;31.27;33.71;;
64077;Laerm;51039;49.696;10.808;2022-11-30T03:17:10;32.83;31.66;34.03;;
64077;Laerm;51039;49.696;10.808;2022-11-30T03:19:36;33.03;31.87;34.08;;
64077;Laerm;51039;49.696;10.808;2022-11-30T03:22:01;33.22;32.00;34.32;;
64077;Laerm;51039;49.696;10.808;2022-11-30T03:24:26;33.39;32.27;34.64;;
64077;Laerm;51039;49.696;10.808;2022-11-30T03:26:52;33.53;32.25;34.59;;
64077;Laerm;51039;49.696;10.808;2022-11-30T03:29:17;33.66;32.44;34.83;;
64077;Laerm;51039;49.696;10.808;2022-11-30T03:31:43;33.78;32.45;34.84;;
64077;Laerm;51039;49.696;10.808;2022-11-30T03:34:08;33.93;32.82;35.20;;
64077;Laerm;51039;49.696;10.808;2022-11-30T03:36:34;34.07;32.89;35.18;;
64077;Laerm;51039;49.696;10.808;2022-11-30T03:38:59;34.17;32.86;35.50;;
64077;Laerm;51039;49.696;10.808;2022-11-30T03:41:25;34.28;33.07;35.35;;
64077;Laerm;51039;49.696;10.808;2022-11-30T03:43:50;34.36;33.03;35.46;;
64077;Laerm;51039;49.696;10.808;2022-11-30T03:46:15;34.44;32.79;35.57;;
64077;Laerm;51039;49.696;10.808;2022-11-30T03:48:41;34.53;32.98;35.67;;
64077;Laerm;51039;49.696;10.808;2022-11-30T03:51:07;34.51;33.37;35.58;;
64077;Laerm;51039;49.696;10.808;2022-11-30T03:53:32;34.50;33.33;35.64;;
64077;Laerm;51039;49.696;10.808;2022-11-30T03:56:03;34.53;33.29;35.56;;
64077;Laerm;51039;49.696;10.808;2022-11-30T03:58:29;34.64;33.37;35.74;;
64077;Laerm;51039;49.696;10.808;2022-11-30T04:01:09;34.72;33.38;35.81;;
64077;Laerm;51039;49.696;10.808;2022-11-30T04:03:35;34.78;33.50;36.00;;
64077;Laerm;51039;49.696;10.808;2022-11-30T04:06:01;34.89;33.48;35.95;;
64077;Laerm;51039;49.696;10.808;2022-11-30T04:08:28;35.05;33.83;36.18;;
64077;Laerm;51039;49.696;10.808;2022-11-30T04:10:55;35.20;33.85;36.19;;
64077;Laerm;51039;49.696;10.808;2022-11-30T04:13:22;35.27;33.97;36.30;;
64077;Laerm;51039;49.696;10.808;2022-11-30T04:15:48;35.35;34.19;36.54;;
64077;Laerm;51039;49.696;10.808;2022-11-30T04:18:15;35.43;34.27;36.57;;
64077;Laerm;51039;49.696;10.808;2022-11-30T04:20:41;35.50;33.96;36.79;;
64077;Laerm;51039;49.696;10.808;2022-11-30T04:23:08;35.56;34.43;36.68;;
64077;Laerm;51039;49.696;10.808;2022-11-30T04:25:33;35.59;34.25;36.65;;
64077;Laerm;51039;49.696;10.808;2022-11-30T04:27:58;35.59;34.39;36.68;;
64077;Laerm;51039;49.696;10.808;2022-11-30T04:30:24;35.59;34.32;36.70;;
64077;Laerm;51039;49.696;10.808;2022-11-30T04:32:49;35.65;34.37;36.83;;
64077;Laerm;51039;49.696;10.808;2022-11-30T04:35:14;35.76;34.43;36.85;;
64077;Laerm;51039;49.696;10.808;2022-11-30T04:37:39;35.79;34.55;36.85;;
64077;Laerm;51039;49.696;10.808;2022-11-30T04:40:05;35.76;34.50;37.06;;
64077;Laerm;51039;49.696;10.808;2022-11-30T04:42:31;35.75;34.33;36.84;;
64077;Laerm;51039;49.696;10.808;2022-11-30T04:44:56;35.71;34.38;36.91;;
64077;Laerm;51039;49.696;10.808;2022-11-30T04:47:22;35.69;33.92;37.16;;
64077;Laerm;51039;49.696;10.808;2022-11-30T04:49:47;35.68;34.31;36.75;;
64077;Laerm;51039;49.696;10.808;2022-11-30T04:52:12;35.63;34.16;36.80;;
64077;Laerm;51039;49.696;10.808;2022-11-30T04:54:37;35.64;34.25;36.72;;
64077;Laerm;51039;49.696;10.808;2022-11-30T04:57:03;35.66;34.51;36.68;;
64077;Laerm;51039;49.696;10.808;2022-11-30T04:59:28;35.67;34.43;36.72;;
64077;Laerm;51039;49.696;10.808;2022-11-30T05:01:53;35.78;34.39;36.89;;
64077;Laerm;51039;49.696;10.808;2022-11-30T05:04:19;35.94;34.72;37.13;;
64077;Laerm;51039;49.696;10.808;2022-11-30T05:06:44;36.01;34.86;37.40;;
64077;Laerm;51039;49.696;10.808;2022-11-30T05:09:09;36.03;34.87;37.11;;
64077;Laerm;51039;49.696;10.808;2022-11-30T05:11:35;36.08;34.72;37.25;;
64077;Laerm;51039;49.696;10.808;2022-11-30T05:14:00;36.09;34.65;37.26;;
64077;Laerm;51039;49.696;10.808;2022-11-30T05:16:25;36.14;35.03;37.35;;
64077;Laerm;51039;49.696;10.808;2022-11-30T05:18:51;36.15;34.86;37.51;;
64077;Laerm;51039;49.696;10.808;2022-11-30T05:21:16;36.11;34.62;37.38;;
64077;Laerm;51039;49.696;10.808;2022-11-30T05:23:42;36.09;34.89;37.32;;
64077;Laerm;51039;49.696;10.808;2022-11-30T05:26:08;36.08;34.89;37.31;;
64077;Laerm;51039;49.696;10.808;2022-11-30T05:28:33;36.11;34.83;37.24;;
64077;Laerm;51039;49.696;10.808;2022-11-30T05:31:03;36.10;34.86;37.38;;
64077;Laerm;51039;49.696;10.808;2022-11-30T05:33:28;36.10;34.90;37.20;;
64077;Laerm;51039;49.696;10.808;2022-11-30T05:35:54;36.12;35.08;37.20;;
64077;Laerm;51039;49.696;10.808;2022-11-30T05:38:19;47.24;34.85;83.05;;
64077;Laerm;51039;49.696;10.808;2022-11-30T05:40:45;36.25;34.99;37.44;;
64077;Laerm;51039;49.696;10.808;2022-11-30T05:43:10;36.34;35.11;37.41;;
64077;Laerm;51039;49.696;10.808;2022-11-30T05:45:35;36.36;34.93;37.65;;
64077;Laerm;51039;49.696;10.808;2022-11-30T05:48:01;36.38;35.19;37.70;;
64077;Laerm;51039;49.696;10.808;2022-11-30T05:50:26;36.38;34.83;37.56;;
64077;Laerm;51039;49.696;10.808;2022-11-30T05:52:53;36.46;35.11;37.56;;
64077;Laerm;51039;49.696;10.808;2022-11-30T05:55:24;36.54;35.17;37.75;;
64077;Laerm;51039;49.696;10.808;2022-11-30T05:57:49;36.57;35.38;37.79;;
64077;Laerm;51039;49.696;10.808;2022-11-30T06:00:15;36.55;35.34;37.76;;
64077;Laerm;51039;49.696;10.808;2022-11-30T06:02:41;36.49;35.16;37.67;;
64077;Laerm;51039;49.696;10.808;2022-11-30T06:05:06;36.41;35.11;37.43;;
64077;Laerm;51039;49.696;10.808;2022-11-30T06:07:32;36.34;35.08;37.49;;
64077;Laerm;51039;49.696;10.808;2022-11-30T06:09:57;36.29;35.21;37.38;;
64077;Laerm;51039;49.696;10.808;2022-11-30T06:12:22;36.19;35.02;37.41;;
64077;Laerm;51039;49.696;10.808;2022-11-30T06:14:48;36.12;34.63;37.12;;
64077;Laerm;51039;49.696;10.808;2022-11-30T06:17:15;36.05;34.86;37.16;;
64077;Laerm;51039;49.696;10.808;2022-11-30T06:19:41;35.95;34.76;37.03;;
64077;Laerm;51039;49.696;10.808;2022-11-30T06:22:06;35.84;34.56;37.17;;
64077;Laerm;51039;49.696;10.808;2022-11-30T06:24:31;35.71;34.46;36.80;;
64077;Laerm;51039;49.696;10.808;2022-11-30T06:26:56;35.61;34.30;36.73;;
64077;Laerm;51039;49.696;10.808;2022-11-30T06:29:22;35.49;34.30;36.65;;
64077;Laerm;51039;49.696;10.808;2022-11-30T06:31:47;35.38;34.25;36.55;;
64077;Laerm;51039;49.696;10.808;2022-11-30T06:34:12;35.26;33.86;36.45;;
64077;Laerm;51039;49.696;10.808;2022-11-30T06:36:38;35.18;33.90;36.34;;
64077;Laerm;51039;49.696;10.808;2022-11-30T06:39:03;35.09;33.98;36.25;;
64077;Laerm;51039;49.696;10.808;2022-11-30T06:41:28;35.02;33.91;36.34;;
64077;Laerm;51039;49.696;10.808;2022-11-30T06:43:54;34.94;33.87;36.21;;
64077;Laerm;51039;49.696;10.808;2022-11-30T06:46:19;34.90;33.72;36.00;;
64077;Laerm;51039;49.696;10.808;2022-11-30T06:48:47;34.84;33.70;36.18;;
64077;Laerm;51039;49.696;10.808;2022-11-30T06:51:13;34.78;33.46;35.95;;
64077;Laerm;51039;49.696;10.808;2022-11-30T06:53:41;34.73;33.54;35.76;;
64077;Laerm;51039;49.696;10.808;2022-11-30T06:56:07;34.68;33.36;35.80;;
64077;Laerm;51039;49.696;10.808;2022-11-30T06:58:33;34.64;33.48;35.70;;
64077;Laerm;51039;49.696;10.808;2022-11-30T07:00:59;34.59;33.33;35.81;;
64077;Laerm;51039;49.696;10.808;2022-11-30T07:03:24;34.58;33.35;35.69;;
64077;Laerm;51039;49.696;10.808;2022-11-30T07:05:49;34.53;33.37;35.62;;
64077;Laerm;51039;49.696;10.808;2022-11-30T07:08:16;34.43;33.36;35.57;;
64077;Laerm;51039;49.696;10.808;2022-11-30T07:10:43;34.32;33.14;35.58;;
64077;Laerm;51039;49.696;10.808;2022-11-30T07:13:11;34.21;33.09;35.31;;
64077;Laerm;51039;49.696;10.808;2022-11-30T07:15:38;34.15;33.00;35.27;;
64077;Laerm;51039;49.696;10.808;2022-11-30T07:18:03;34.13;33.03;35.19;;
64077;Laerm;51039;49.696;10.808;2022-11-30T07:20:29;33.97;32.78;35.16;;
64077;Laerm;51039;49.696;10.808;2022-11-30T07:22:54;33.72;32.53;34.86;;
64077;Laerm;51039;49.696;10.808;2022-11-30T07:25:20;33.51;32.39;34.77;;
64077;Laerm;51039;49.696;10.808;2022-11-30T07:28:17;33.44;32.37;34.58;;
64077;Laerm;51039;49.696;10.808;2022-11-30T07:30:43;33.47;32.47;34.52;;
64077;Laerm;51039;49.696;10.808;2022-11-30T07:33:08;33.57;32.46;34.67;;
64077;Laerm;51039;49.696;10.808;2022-11-30T07:35:33;33.73;32.60;34.92;;
64077;Laerm;51039;49.696;10.808;2022-11-30T07:37:59;33.89;32.70;34.98;;
64077;Laerm;51039;49.696;10.808;2022-11-30T07:40:25;34.09;32.79;35.34;;
64077;Laerm;51039;49.696;10.808;2022-11-30T07:42:54;34.35;33.28;35.56;;
64077;Laerm;51039;49.696;10.808;2022-11-30T07:45:19;34.67;33.44;35.87;;
64077;Laerm;51039;49.696;10.808;2022-11-30T07:47:45;34.97;33.75;36.09;;
64077;Laerm;51039;49.696;10.808;2022-11-30T07:50:10;35.28;34.10;36.54;;
64077;Laerm;51039;49.696;10.808;2022-11-30T07:52:35;35.60;34.16;36.87;;
64077;Laerm;51039;49.696;10.808;2022-11-30T07:55:01;35.87;34.53;37.06;;
64077;Laerm;51039;49.696;10.808;2022-11-30T07:57:26;36.13;34.68;37.41;;
64077;Laerm;51039;49.696;10.808;2022-11-30T07:59:51;36.41;35.24;37.75;;
64077;Laerm;51039;49.696;10.808;2022-11-30T08:02:17;36.64;35.45;37.74;;
64077;Laerm;51039;49.696;10.808;2022-11-30T08:04:42;36.91;35.62;38.09;;
64077;Laerm;51039;49.696;10.808;2022-11-30T08:07:07;37.12;35.88;38.30;;
64077;Laerm;51039;49.696;10.808;2022-11-30T08:09:32;37.24;36.00;38.45;;
64077;Laerm;51039;49.696;10.808;2022-11-30T08:11:58;37.37;36.09;38.43;;
64077;Laerm;51039;49.696;10.808;2022-11-30T08:14:24;37.48;36.20;38.56;;
64077;Laerm;51039;49.696;10.808;2022-11-30T08:16:49;37.58;36.26;38.63;;
64077;Laerm;51039;49.696;10.808;2022-11-30T08:19:14;37.73;36.43;39.08;;
64077;Laerm;51039;49.696;10.808;2022-11-30T08:21:40;37.86;36.77;39.01;;
64077;Laerm;51039;49.696;10.808;2022-11-30T08:24:05;37.98;36.52;39.20;;
64077;Laerm;51039;49.696;10.808;2022-11-30T08:26:32;38.05;36.72;39.08;;
64077;Laerm;51039;49.696;10.808;2022-11-30T08:28:59;38.12;36.86;39.24;;
64077;Laerm;51039;49.696;10.808;2022-11-30T08:31:27;38.28;37.08;39.73;;
64077;Laerm;51039;49.696;10.808;2022-11-30T08:34:00;38.40;37.22;39.61;;
64077;Laerm;51039;49.696;10.808;2022-11-30T08:36:27;38.42;37.14;39.56;;
64077;Laerm;51039;49.696;10.808;2022-11-30T08:38:53;38.58;37.25;39.89;;
64077;Laerm;51039;49.696;10.808;2022-11-30T08:41:20;38.68;37.29;39.93;;
64077;Laerm;51039;49.696;10.808;2022-11-30T08:43:46;38.79;37.44;40.53;;
64077;Laerm;51039;49.696;10.808;2022-11-30T08:46:14;38.81;37.68;39.93;;
64077;Laerm;51039;49.696;10.808;2022-11-30T08:48:39;38.72;37.43;40.15;;
64077;Laerm;51039;49.696;10.808;2022-11-30T08:51:09;38.70;37.31;39.86;;
64077;Laerm;51039;49.696;10.808;2022-11-30T08:53:35;38.70;37.57;39.88;;
64077;Laerm;51039;49.696;10.808;2022-11-30T08:56:05;38.77;37.69;40.00;;
64077;Laerm;51039;49.696;10.808;2022-11-30T08:58:33;38.90;37.54;40.09;;
64077;Laerm;51039;49.696;10.808;2022-11-30T09:03:39;39.10;37.54;40.27;;
64077;Laerm;51039;49.696;10.808;2022-11-30T09:06:17;39.19;38.00;40.41;;
64077;Laerm;51039;49.696;10.808;2022-11-30T09:08:44;39.24;37.96;40.44;;
64077;Laerm;51039;49.696;10.808;2022-11-30T09:11:13;39.29;37.95;40.52;;
64077;Laerm;51039;49.696;10.808;2022-11-30T09:13:39;39.30;37.93;40.56;;
64077;Laerm;51039;49.696;10.808;2022-11-30T09:16:04;39.31;37.90;40.60;;
64077;Laerm;51039;49.696;10.808;2022-11-30T09:18:30;39.31;37.91;40.38;;
64077;Laerm;51039;49.696;10.808;2022-11-30T09:21:01;39.33;37.98;40.62;;
64077;Laerm;51039;49.696;10.808;2022-11-30T09:23:28;39.32;38.12;40.58;;
64077;Laerm;51039;49.696;10.808;2022-11-30T09:25:55;39.24;37.82;40.25;;
64077;Laerm;51039;49.696;10.808;2022-11-30T09:28:20;39.29;38.08;40.52;;
64077;Laerm;51039;49.696;10.808;2022-11-30T09:30:46;39.32;38.12;40.47;;
64077;Laerm;51039;49.696;10.808;2022-11-30T09:33:11;39.34;38.02;40.52;;
64077;Laerm;51039;49.696;10.808;2022-11-30T09:35:36;39.34;38.06;40.57;;
64077;Laerm;51039;49.696;10.808;2022-11-30T09:38:01;39.33;38.05;40.54;;
64077;Laerm;51039;49.696;10.808;2022-11-30T09:40:28;39.30;38.17;40.41;;
64077;Laerm;51039;49.696;10.808;2022-11-30T09:43:04;39.27;37.94;40.46;;
64077;Laerm;51039;49.696;10.808;2022-11-30T09:45:31;39.22;37.85;40.32;;
64077;Laerm;51039;49.696;10.808;2022-11-30T09:50:52;39.28;38.10;40.53;;
64077;Laerm;51039;49.696;10.808;2022-11-30T09:53:33;39.27;38.12;40.60;;
64077;Laerm;51039;49.696;10.808;2022-11-30T09:56:05;39.29;38.02;40.54;;
64077;Laerm;51039;49.696;10.808;2022-11-30T09:58:45;39.33;38.08;40.73;;
64077;Laerm;51039;49.696;10.808;2022-11-30T10:01:16;39.35;38.20;40.44;;
64077;Laerm;51039;49.696;10.808;2022-11-30T10:03:43;39.32;37.95;40.54;;
64077;Laerm;51039;49.696;10.808;2022-11-30T10:06:18;39.34;38.10;40.44;;
64077;Laerm;51039;49.696;10.808;2022-11-30T10:19:30;39.24;37.87;40.58;;
64077;Laerm;51039;49.696;10.808;2022-11-30T10:25:08;39.32;38.09;40.62;;
64077;Laerm;51039;49.696;10.808;2022-11-30T10:30:16;39.33;38.06;40.56;;
64077;Laerm;51039;49.696;10.808;2022-11-30T10:32:44;39.36;38.08;40.60;;
64077;Laerm;51039;49.696;10.808;2022-11-30T10:35:19;39.35;37.93;40.52;;
64077;Laerm;51039;49.696;10.808;2022-11-30T10:37:46;39.39;38.26;40.50;;
64077;Laerm;51039;49.696;10.808;2022-11-30T10:40:22;39.40;37.87;40.74;;
64077;Laerm;51039;49.696;10.808;2022-11-30T10:45:22;39.41;37.81;40.56;;
64077;Laerm;51039;49.696;10.808;2022-11-30T10:47:55;39.43;38.25;40.68;;
64077;Laerm;51039;49.696;10.808;2022-11-30T10:50:26;39.47;38.15;40.80;;
64077;Laerm;51039;49.696;10.808;2022-11-30T10:52:55;39.47;38.32;40.69;;
64077;Laerm;51039;49.696;10.808;2022-11-30T10:55:24;39.48;38.25;40.56;;
64077;Laerm;51039;49.696;10.808;2022-11-30T10:57:56;39.49;38.18;40.63;;
64077;Laerm;51039;49.696;10.808;2022-11-30T11:00:22;39.51;38.17;40.63;;
64077;Laerm;51039;49.696;10.808;2022-11-30T11:02:48;39.54;38.06;40.83;;
64077;Laerm;51039;49.696;10.808;2022-11-30T11:07:54;39.52;38.39;40.75;;
64077;Laerm;51039;49.696;10.808;2022-11-30T11:10:26;39.55;38.24;40.75;;
64077;Laerm;51039;49.696;10.808;2022-11-30T11:12:54;39.55;38.29;40.84;;
64077;Laerm;51039;49.696;10.808;2022-11-30T11:15:25;39.57;38.39;40.79;;
64077;Laerm;51039;49.696;10.808;2022-11-30T11:17:52;39.56;38.25;40.66;;
64077;Laerm;51039;49.696;10.808;2022-11-30T11:20:35;39.57;38.26;41.06;;
64077;Laerm;51039;49.696;10.808;2022-11-30T11:23:03;39.58;38.27;40.93;;
64077;Laerm;51039;49.696;10.808;2022-11-30T11:25:36;39.59;38.31;40.91;;
64077;Laerm;51039;49.696;10.808;2022-11-30T11:28:11;39.59;38.23;40.81;;
64077;Laerm;51039;49.696;10.808;2022-11-30T11:30:38;39.58;38.36;40.87;;
64077;Laerm;51039;49.696;10.808;2022-11-30T11:38:26;39.57;38.10;40.71;;
64077;Laerm;51039;49.696;10.808;2022-11-30T11:41:00;39.58;38.41;40.81;;
64077;Laerm;51039;49.696;10.808;2022-11-30T11:43:31;39.56;38.30;40.70;;
64077;Laerm;51039;49.696;10.808;2022-11-30T11:46:12;39.56;38.16;40.99;;
64077;Laerm;51039;49.696;10.808;2022-11-30T11:48:48;39.55;38.18;40.73;;
64077;Laerm;51039;49.696;10.808;2022-11-30T11:51:30;39.57;38.35;40.86;;
64077;Laerm;51039;49.696;10.808;2022-11-30T11:53:57;39.58;38.40;40.75;;
64077;Laerm;51039;49.696;10.808;2022-11-30T11:56:31;39.56;38.25;40.79;;
64077;Laerm;51039;49.696;10.808;2022-11-30T12:07:34;39.56;38.19;40.94;;
64077;Laerm;51039;49.696;10.808;2022-11-30T12:12:57;39.53;38.26;40.71;;
64077;Laerm;51039;49.696;10.808;2022-11-30T12:15:30;39.53;38.19;40.93;;
64077;Laerm;51039;49.696;10.808;2022-11-30T12:18:30;39.51;38.18;40.65;;
64077;Laerm;51039;49.696;10.808;2022-11-30T12:21:13;39.48;38.03;40.71;;
64077;Laerm;51039;49.696;10.808;2022-11-30T12:23:45;39.49;38.23;40.65;;
64077;Laerm;51039;49.696;10.808;2022-11-30T12:26:34;39.49;38.13;40.69;;
64077;Laerm;51039;49.696;10.808;2022-11-30T12:34:29;39.49;38.00;40.75;;
64077;Laerm;51039;49.696;10.808;2022-11-30T12:37:10;39.49;38.18;40.63;;
64077;Laerm;51039;49.696;10.808;2022-11-30T12:42:14;39.46;38.03;40.69;;
64077;Laerm;51039;49.696;10.808;2022-11-30T12:45:08;39.45;38.21;40.62;;
64077;Laerm;51039;49.696;10.808;2022-11-30T12:53:23;39.48;38.13;40.75;;
64077;Laerm;51039;49.696;10.808;2022-11-30T12:56:19;39.49;38.30;40.83;;
64077;Laerm;51039;49.696;10.808;2022-11-30T12:59:06;39.51;38.29;40.63;;
64077;Laerm;51039;49.696;10.808;2022-11-30T13:01:51;39.52;38.25;40.65;;
64077;Laerm;51039;49.696;10.808;2022-11-30T13:04:34;39.51;38.16;40.67;;
64077;Laerm;51039;49.696;10.808;2022-11-30T13:07:41;39.51;38.07;40.81;;
64077;Laerm;51039;49.696;10.808;2022-11-30T13:12:38;39.51;38.30;41.05;;
64077;Laerm;51039;49.696;10.808;2022-11-30T13:15:15;39.52;38.37;40.61;;
64077;Laerm;51039;49.696;10.808;2022-11-30T13:17:42;39.52;38.18;40.72;;
64077;Laerm;51039;49.696;10.808;2022-11-30T13:20:37;39.51;38.12;40.78;;
64077;Laerm;51039;49.696;10.808;2022-11-30T13:25:57;39.46;38.10;40.73;;
64077;Laerm;51039;49.696;10.808;2022-11-30T13:30:58;39.46;38.10;40.62;;
64077;Laerm;51039;49.696;10.808;2022-11-30T13:38:45;39.48;38.12;40.74;;
64077;Laerm;51039;49.696;10.808;2022-11-30T13:41:18;39.45;38.16;40.81;;
64077;Laerm;51039;49.696;10.808;2022-11-30T13:43:46;39.47;38.10;40.69;;
64077;Laerm;51039;49.696;10.808;2022-11-30T13:46:19;39.46;38.13;40.70;;
64077;Laerm;51039;49.696;10.808;2022-11-30T13:48:47;39.48;38.20;40.75;;
64077;Laerm;51039;49.696;10.808;2022-11-30T13:51:33;39.52;38.24;40.62;;
64077;Laerm;51039;49.696;10.808;2022-11-30T14:03:23;39.56;38.27;40.73;;
64077;Laerm;51039;49.696;10.808;2022-11-30T14:05:54;39.56;37.97;40.89;;
64077;Laerm;51039;49.696;10.808;2022-11-30T14:10:53;39.57;38.12;40.84;;
64077;Laerm;51039;49.696;10.808;2022-11-30T14:20:50;39.56;38.28;40.94;;
64077;Laerm;51039;49.696;10.808;2022-11-30T14:23:25;39.56;38.29;40.84;;
64077;Laerm;51039;49.696;10.808;2022-11-30T14:25:56;39.55;38.24;40.82;;
64077;Laerm;51039;49.696;10.808;2022-11-30T14:28:29;39.54;38.40;40.87;;
64077;Laerm;51039;49.696;10.808;2022-11-30T14:30:57;39.53;38.38;40.65;;
64077;Laerm;51039;49.696;10.808;2022-11-30T14:33:48;39.54;38.27;40.84;;
64077;Laerm;51039;49.696;10.808;2022-11-30T14:36:15;39.53;37.97;40.89;;
64077;Laerm;51039;49.696;10.808;2022-11-30T14:38:42;39.54;38.31;40.68;;
64077;Laerm;51039;49.696;10.808;2022-11-30T14:41:21;39.54;38.25;40.87;;
64077;Laerm;51039;49.696;10.808;2022-11-30T14:44:02;39.52;38.16;40.75;;
64077;Laerm;51039;49.696;10.808;2022-11-30T14:46:29;39.51;38.16;40.95;;
64077;Laerm;51039;49.696;10.808;2022-11-30T14:49:15;39.53;38.11;40.82;;
64077;Laerm;51039;49.696;10.808;2022-11-30T14:51:48;39.54;38.22;40.90;;
64077;Laerm;51039;49.696;10.808;2022-11-30T15:00:20;39.54;38.19;40.80;;
64077;Laerm;51039;49.696;10.808;2022-11-30T15:02:47;39.53;38.17;40.81;;
64077;Laerm;51039;49.696;10.808;2022-11-30T15:05:23;39.54;38.21;40.97;;
64077;Laerm;51039;49.696;10.808;2022-11-30T15:07:52;39.53;38.21;40.73;;
64077;Laerm;51039;49.696;10.808;2022-11-30T15:10:30;39.54;38.11;40.88;;
64077;Laerm;51039;49.696;10.808;2022-11-30T15:12:58;39.54;38.27;40.66;;
64077;Laerm;51039;49.696;10.808;2022-11-30T15:15:26;39.55;38.28;40.74;;
64077;Laerm;51039;49.696;10.808;2022-11-30T15:23:14;39.54;38.27;40.72;;
64077;Laerm;51039;49.696;10.808;2022-11-30T15:25:48;39.52;38.23;40.91;;
64077;Laerm;51039;49.696;10.808;2022-11-30T15:28:38;39.52;38.22;40.86;;